sensor_id;sensor_type;location;lat;lon;timestamp;P1;durP1;ratioP1;P2;durP2;ratioP2
16440;SDS011;8330;-33.858;151.184;2023-03-01T00:02:20;7.88;;;3.65;;
16440;SDS011;8330;-33.858;151.184;2023-03-01T00:04:51;8.20;;;3.65;;
16440;SDS011;8330;-33.858;151.184;2023-03-01T00:07:24;5.65;;;3.08;;
16440;SDS011;8330;-33.858;151.184;2023-03-01T00:09:55;10.05;;;3.38;;
16440;SDS011;8330;-33.858;151.184;2023-03-01T00:12:26;7.00;;;3.25;;
16440;SDS011;8330;-33.858;151.184;2023-03-01T00:14:57;4.90;;;2.90;;
16440;SDS011;8330;-33.858;151.184;2023-03-01T00:17:29;6.47;;;2.92;;
16440;SDS011;8330;-33.858;151.184;2023-03-01T00:20:00;6.57;;;3.28;;
16440;SDS011;8330;-33.858;151.184;2023-03-01T00:22:36;5.28;;;3.20;;
16440;SDS011;8330;-33.858;151.184;2023-03-01T00:25:07;5.05;;;2.85;;
16440;SDS011;8330;-33.858;151.184;2023-03-01T00:27:38;4.50;;;2.63;;
16440;SDS011;8330;-33.858;151.184;2023-03-01T00:30:10;8.57;;;3.20;;
16440;SDS011;8330;-33.858;151.184;2023-03-01T00:32:41;6.00;;;2.90;;
16440;SDS011;8330;-33.858;151.184;2023-03-01T00:35:12;7.28;;;2.90;;
16440;SDS011;8330;-33.858;151.184;2023-03-01T00:37:45;10.18;;;3.20;;
16440;SDS011;8330;-33.858;151.184;2023-03-01T00:40:19;7.70;;;3.05;;
16440;SDS011;8330;-33.858;151.184;2023-03-01T00:42:50;7.13;;;3.00;;
16440;SDS011;8330;-33.858;151.184;2023-03-01T00:45:21;4.38;;;2.60;;
16440;SDS011;8330;-33.858;151.184;2023-03-01T00:47:55;7.97;;;3.10;;
16440;SDS011;8330;-33.858;151.184;2023-03-01T00:50:26;5.63;;;2.42;;
16440;SDS011;8330;-33.858;151.184;2023-03-01T00:52:59;4.03;;;2.40;;
16440;SDS011;8330;-33.858;151.184;2023-03-01T00:55:31;5.45;;;2.55;;
16440;SDS011;8330;-33.858;151.184;2023-03-01T00:58:02;4.65;;;2.35;;
16440;SDS011;8330;-33.858;151.184;2023-03-01T01:00:33;5.30;;;2.22;;
16440;SDS011;8330;-33.858;151.184;2023-03-01T01:03:04;4.10;;;1.77;;
16440;SDS011;8330;-33.858;151.184;2023-03-01T01:05:36;6.07;;;2.00;;
16440;SDS011;8330;-33.858;151.184;2023-03-01T01:08:09;4.60;;;1.98;;
16440;SDS011;8330;-33.858;151.184;2023-03-01T01:10:40;4.18;;;2.05;;
16440;SDS011;8330;-33.858;151.184;2023-03-01T01:13:14;3.40;;;1.83;;
16440;SDS011;8330;-33.858;151.184;2023-03-01T01:15:45;7.65;;;1.85;;
16440;SDS011;8330;-33.858;151.184;2023-03-01T01:18:16;2.50;;;1.63;;
16440;SDS011;8330;-33.858;151.184;2023-03-01T01:20:47;3.00;;;1.75;;
16440;SDS011;8330;-33.858;151.184;2023-03-01T01:23:20;4.80;;;1.83;;
16440;SDS011;8330;-33.858;151.184;2023-03-01T01:25:51;6.68;;;1.83;;
16440;SDS011;8330;-33.858;151.184;2023-03-01T01:28:22;3.92;;;1.88;;
16440;SDS011;8330;-33.858;151.184;2023-03-01T01:30:53;6.57;;;1.67;;
16440;SDS011;8330;-33.858;151.184;2023-03-01T01:33:24;6.00;;;1.65;;
16440;SDS011;8330;-33.858;151.184;2023-03-01T01:35:55;7.38;;;1.50;;
16440;SDS011;8330;-33.858;151.184;2023-03-01T01:38:29;2.67;;;1.48;;
16440;SDS011;8330;-33.858;151.184;2023-03-01T01:41:00;4.43;;;1.30;;
16440;SDS011;8330;-33.858;151.184;2023-03-01T01:43:31;4.43;;;1.60;;
16440;SDS011;8330;-33.858;151.184;2023-03-01T01:46:07;4.00;;;1.52;;
16440;SDS011;8330;-33.858;151.184;2023-03-01T01:48:47;6.40;;;1.45;;
16440;SDS011;8330;-33.858;151.184;2023-03-01T01:51:22;6.47;;;1.50;;
16440;SDS011;8330;-33.858;151.184;2023-03-01T01:54:09;3.33;;;1.40;;
16440;SDS011;8330;-33.858;151.184;2023-03-01T01:56:44;4.28;;;1.30;;
16440;SDS011;8330;-33.858;151.184;2023-03-01T01:59:19;4.82;;;1.23;;
16440;SDS011;8330;-33.858;151.184;2023-03-01T02:01:52;3.90;;;1.10;;
16440;SDS011;8330;-33.858;151.184;2023-03-01T02:04:23;8.65;;;1.20;;
16440;SDS011;8330;-33.858;151.184;2023-03-01T02:06:55;4.97;;;1.60;;
16440;SDS011;8330;-33.858;151.184;2023-03-01T02:09:32;1.90;;;1.00;;
16440;SDS011;8330;-33.858;151.184;2023-03-01T02:12:04;2.97;;;1.17;;
16440;SDS011;8330;-33.858;151.184;2023-03-01T02:14:37;5.95;;;1.40;;
16440;SDS011;8330;-33.858;151.184;2023-03-01T02:17:08;3.90;;;1.20;;
16440;SDS011;8330;-33.858;151.184;2023-03-01T02:19:44;3.80;;;1.52;;
16440;SDS011;8330;-33.858;151.184;2023-03-01T02:22:33;4.90;;;1.50;;
16440;SDS011;8330;-33.858;151.184;2023-03-01T02:25:12;3.13;;;1.52;;
16440;SDS011;8330;-33.858;151.184;2023-03-01T02:27:58;2.80;;;1.33;;
16440;SDS011;8330;-33.858;151.184;2023-03-01T02:30:36;4.85;;;1.50;;
16440;SDS011;8330;-33.858;151.184;2023-03-01T02:33:28;2.00;;;1.17;;
16440;SDS011;8330;-33.858;151.184;2023-03-01T02:35:59;2.05;;;1.25;;
16440;SDS011;8330;-33.858;151.184;2023-03-01T02:38:32;1.88;;;1.45;;
16440;SDS011;8330;-33.858;151.184;2023-03-01T02:41:03;5.38;;;1.30;;
16440;SDS011;8330;-33.858;151.184;2023-03-01T02:43:35;3.97;;;1.40;;
16440;SDS011;8330;-33.858;151.184;2023-03-01T02:46:13;2.58;;;1.25;;
16440;SDS011;8330;-33.858;151.184;2023-03-01T02:48:46;3.30;;;1.15;;
16440;SDS011;8330;-33.858;151.184;2023-03-01T02:51:31;1.83;;;1.00;;
16440;SDS011;8330;-33.858;151.184;2023-03-01T02:54:13;3.15;;;0.85;;
16440;SDS011;8330;-33.858;151.184;2023-03-01T02:56:50;4.72;;;0.88;;
16440;SDS011;8330;-33.858;151.184;2023-03-01T02:59:24;2.03;;;1.10;;
16440;SDS011;8330;-33.858;151.184;2023-03-01T03:02:02;4.68;;;1.23;;
16440;SDS011;8330;-33.858;151.184;2023-03-01T03:04:33;2.40;;;1.20;;
16440;SDS011;8330;-33.858;151.184;2023-03-01T03:07:04;3.80;;;1.27;;
16440;SDS011;8330;-33.858;151.184;2023-03-01T03:09:35;4.72;;;1.10;;
16440;SDS011;8330;-33.858;151.184;2023-03-01T03:12:06;5.43;;;1.33;;
16440;SDS011;8330;-33.858;151.184;2023-03-01T03:14:37;2.63;;;1.00;;
16440;SDS011;8330;-33.858;151.184;2023-03-01T03:17:10;2.78;;;1.25;;
16440;SDS011;8330;-33.858;151.184;2023-03-01T03:19:42;1.77;;;1.00;;
16440;SDS011;8330;-33.858;151.184;2023-03-01T03:22:13;1.92;;;1.02;;
16440;SDS011;8330;-33.858;151.184;2023-03-01T03:24:45;3.38;;;1.08;;
16440;SDS011;8330;-33.858;151.184;2023-03-01T03:27:16;2.92;;;1.08;;
16440;SDS011;8330;-33.858;151.184;2023-03-01T03:29:47;1.60;;;0.80;;
16440;SDS011;8330;-33.858;151.184;2023-03-01T03:32:20;3.35;;;1.10;;
16440;SDS011;8330;-33.858;151.184;2023-03-01T03:34:54;7.93;;;1.20;;
16440;SDS011;8330;-33.858;151.184;2023-03-01T03:37:25;5.00;;;1.00;;
16440;SDS011;8330;-33.858;151.184;2023-03-01T03:40:12;5.10;;;1.10;;
16440;SDS011;8330;-33.858;151.184;2023-03-01T03:42:43;12.30;;;1.73;;
16440;SDS011;8330;-33.858;151.184;2023-03-01T03:45:15;9.75;;;1.60;;
16440;SDS011;8330;-33.858;151.184;2023-03-01T03:47:50;8.32;;;1.50;;
16440;SDS011;8330;-33.858;151.184;2023-03-01T03:50:21;7.13;;;1.60;;
16440;SDS011;8330;-33.858;151.184;2023-03-01T03:52:52;4.93;;;1.10;;
16440;SDS011;8330;-33.858;151.184;2023-03-01T03:55:23;6.93;;;1.08;;
16440;SDS011;8330;-33.858;151.184;2023-03-01T03:57:57;4.47;;;1.00;;
16440;SDS011;8330;-33.858;151.184;2023-03-01T04:00:33;4.00;;;1.02;;
16440;SDS011;8330;-33.858;151.184;2023-03-01T04:03:07;5.38;;;1.13;;
16440;SDS011;8330;-33.858;151.184;2023-03-01T04:05:39;12.43;;;1.50;;
16440;SDS011;8330;-33.858;151.184;2023-03-01T04:08:10;2.58;;;0.90;;
16440;SDS011;8330;-33.858;151.184;2023-03-01T04:10:42;6.40;;;1.00;;
16440;SDS011;8330;-33.858;151.184;2023-03-01T04:13:15;4.93;;;1.00;;
16440;SDS011;8330;-33.858;151.184;2023-03-01T04:15:48;4.15;;;0.70;;
16440;SDS011;8330;-33.858;151.184;2023-03-01T04:18:22;6.78;;;0.65;;
16440;SDS011;8330;-33.858;151.184;2023-03-01T04:20:53;5.18;;;1.02;;
16440;SDS011;8330;-33.858;151.184;2023-03-01T04:23:24;5.50;;;0.90;;
16440;SDS011;8330;-33.858;151.184;2023-03-01T04:25:56;5.47;;;0.90;;
16440;SDS011;8330;-33.858;151.184;2023-03-01T04:28:30;5.97;;;0.98;;
16440;SDS011;8330;-33.858;151.184;2023-03-01T04:31:03;1.83;;;0.88;;
16440;SDS011;8330;-33.858;151.184;2023-03-01T04:33:41;4.70;;;0.85;;
16440;SDS011;8330;-33.858;151.184;2023-03-01T04:36:13;4.43;;;1.13;;
16440;SDS011;8330;-33.858;151.184;2023-03-01T04:38:45;4.25;;;1.00;;
16440;SDS011;8330;-33.858;151.184;2023-03-01T04:41:17;9.68;;;1.27;;
16440;SDS011;8330;-33.858;151.184;2023-03-01T04:43:49;4.72;;;1.00;;
16440;SDS011;8330;-33.858;151.184;2023-03-01T04:46:20;6.28;;;1.30;;
16440;SDS011;8330;-33.858;151.184;2023-03-01T04:48:53;6.68;;;1.05;;
16440;SDS011;8330;-33.858;151.184;2023-03-01T04:51:24;5.35;;;1.20;;
16440;SDS011;8330;-33.858;151.184;2023-03-01T04:53:55;3.35;;;0.90;;
16440;SDS011;8330;-33.858;151.184;2023-03-01T04:56:26;6.68;;;0.98;;
16440;SDS011;8330;-33.858;151.184;2023-03-01T04:58:57;6.50;;;1.35;;
16440;SDS011;8330;-33.858;151.184;2023-03-01T05:01:31;7.10;;;1.20;;
16440;SDS011;8330;-33.858;151.184;2023-03-01T05:04:05;5.30;;;1.10;;
16440;SDS011;8330;-33.858;151.184;2023-03-01T05:06:39;3.30;;;1.08;;
16440;SDS011;8330;-33.858;151.184;2023-03-01T05:09:10;5.53;;;1.20;;
16440;SDS011;8330;-33.858;151.184;2023-03-01T05:11:42;5.70;;;1.10;;
16440;SDS011;8330;-33.858;151.184;2023-03-01T05:14:13;4.95;;;1.30;;
16440;SDS011;8330;-33.858;151.184;2023-03-01T05:16:44;2.90;;;1.00;;
16440;SDS011;8330;-33.858;151.184;2023-03-01T05:19:17;7.30;;;1.13;;
16440;SDS011;8330;-33.858;151.184;2023-03-01T05:21:48;4.80;;;1.38;;
16440;SDS011;8330;-33.858;151.184;2023-03-01T05:24:32;5.00;;;1.27;;
16440;SDS011;8330;-33.858;151.184;2023-03-01T05:27:05;8.73;;;1.58;;
16440;SDS011;8330;-33.858;151.184;2023-03-01T05:29:37;5.55;;;1.52;;
16440;SDS011;8330;-33.858;151.184;2023-03-01T05:32:09;5.68;;;1.23;;
16440;SDS011;8330;-33.858;151.184;2023-03-01T05:34:43;3.10;;;1.20;;
16440;SDS011;8330;-33.858;151.184;2023-03-01T05:37:14;5.28;;;1.23;;
16440;SDS011;8330;-33.858;151.184;2023-03-01T05:39:46;7.22;;;1.40;;
16440;SDS011;8330;-33.858;151.184;2023-03-01T05:42:17;4.78;;;1.38;;
16440;SDS011;8330;-33.858;151.184;2023-03-01T05:44:49;7.25;;;1.65;;
16440;SDS011;8330;-33.858;151.184;2023-03-01T05:47:20;5.85;;;1.50;;
16440;SDS011;8330;-33.858;151.184;2023-03-01T05:49:53;7.20;;;1.65;;
16440;SDS011;8330;-33.858;151.184;2023-03-01T05:52:24;3.33;;;1.45;;
16440;SDS011;8330;-33.858;151.184;2023-03-01T05:54:57;7.55;;;1.75;;
16440;SDS011;8330;-33.858;151.184;2023-03-01T05:57:28;8.18;;;1.60;;
16440;SDS011;8330;-33.858;151.184;2023-03-01T05:59:59;9.85;;;1.65;;
16440;SDS011;8330;-33.858;151.184;2023-03-01T06:02:32;9.02;;;1.65;;
16440;SDS011;8330;-33.858;151.184;2023-03-01T06:05:06;12.70;;;2.00;;
16440;SDS011;8330;-33.858;151.184;2023-03-01T06:07:39;7.45;;;2.13;;
16440;SDS011;8330;-33.858;151.184;2023-03-01T06:10:11;6.10;;;1.67;;
16440;SDS011;8330;-33.858;151.184;2023-03-01T06:12:42;17.13;;;1.95;;
16440;SDS011;8330;-33.858;151.184;2023-03-01T06:15:14;8.55;;;1.70;;
16440;SDS011;8330;-33.858;151.184;2023-03-01T06:17:46;6.80;;;1.80;;
16440;SDS011;8330;-33.858;151.184;2023-03-01T06:20:19;9.70;;;1.50;;
16440;SDS011;8330;-33.858;151.184;2023-03-01T06:22:52;10.25;;;2.35;;
16440;SDS011;8330;-33.858;151.184;2023-03-01T06:25:24;6.13;;;1.73;;
16440;SDS011;8330;-33.858;151.184;2023-03-01T06:27:57;11.02;;;2.47;;
16440;SDS011;8330;-33.858;151.184;2023-03-01T06:30:28;11.93;;;2.00;;
16440;SDS011;8330;-33.858;151.184;2023-03-01T06:32:59;12.50;;;2.13;;
16440;SDS011;8330;-33.858;151.184;2023-03-01T06:35:33;8.48;;;2.00;;
16440;SDS011;8330;-33.858;151.184;2023-03-01T06:38:06;9.13;;;2.33;;
16440;SDS011;8330;-33.858;151.184;2023-03-01T06:40:38;9.75;;;2.70;;
16440;SDS011;8330;-33.858;151.184;2023-03-01T06:43:09;11.55;;;2.15;;
16440;SDS011;8330;-33.858;151.184;2023-03-01T06:45:40;15.50;;;2.58;;
16440;SDS011;8330;-33.858;151.184;2023-03-01T06:48:13;10.38;;;2.42;;
16440;SDS011;8330;-33.858;151.184;2023-03-01T06:50:47;8.85;;;2.10;;
16440;SDS011;8330;-33.858;151.184;2023-03-01T06:53:18;6.68;;;2.33;;
16440;SDS011;8330;-33.858;151.184;2023-03-01T06:55:53;10.98;;;2.33;;
16440;SDS011;8330;-33.858;151.184;2023-03-01T06:58:26;10.93;;;2.38;;
16440;SDS011;8330;-33.858;151.184;2023-03-01T07:00:57;12.68;;;2.60;;
16440;SDS011;8330;-33.858;151.184;2023-03-01T07:03:28;8.93;;;2.50;;
16440;SDS011;8330;-33.858;151.184;2023-03-01T07:06:01;11.65;;;2.40;;
16440;SDS011;8330;-33.858;151.184;2023-03-01T07:08:32;10.80;;;2.30;;
16440;SDS011;8330;-33.858;151.184;2023-03-01T07:11:03;9.40;;;2.10;;
16440;SDS011;8330;-33.858;151.184;2023-03-01T07:13:34;15.88;;;2.72;;
16440;SDS011;8330;-33.858;151.184;2023-03-01T07:16:05;10.50;;;2.35;;
16440;SDS011;8330;-33.858;151.184;2023-03-01T07:18:37;7.85;;;2.15;;
16440;SDS011;8330;-33.858;151.184;2023-03-01T07:21:11;8.57;;;2.05;;
16440;SDS011;8330;-33.858;151.184;2023-03-01T07:23:43;9.55;;;2.40;;
16440;SDS011;8330;-33.858;151.184;2023-03-01T07:26:17;9.18;;;2.20;;
16440;SDS011;8330;-33.858;151.184;2023-03-01T07:28:48;8.90;;;2.38;;
16440;SDS011;8330;-33.858;151.184;2023-03-01T07:31:19;11.65;;;2.28;;
16440;SDS011;8330;-33.858;151.184;2023-03-01T07:33:50;9.55;;;2.10;;
16440;SDS011;8330;-33.858;151.184;2023-03-01T07:36:23;11.95;;;2.55;;
16440;SDS011;8330;-33.858;151.184;2023-03-01T07:38:54;11.02;;;2.50;;
16440;SDS011;8330;-33.858;151.184;2023-03-01T07:41:25;11.05;;;2.45;;
16440;SDS011;8330;-33.858;151.184;2023-03-01T07:43:56;11.02;;;2.80;;
16440;SDS011;8330;-33.858;151.184;2023-03-01T07:46:27;10.32;;;2.15;;
16440;SDS011;8330;-33.858;151.184;2023-03-01T07:48:58;8.85;;;2.30;;
16440;SDS011;8330;-33.858;151.184;2023-03-01T07:51:31;9.32;;;2.50;;
16440;SDS011;8330;-33.858;151.184;2023-03-01T07:54:02;9.38;;;2.00;;
16440;SDS011;8330;-33.858;151.184;2023-03-01T07:56:33;11.48;;;2.45;;
16440;SDS011;8330;-33.858;151.184;2023-03-01T07:59:04;12.45;;;2.67;;
16440;SDS011;8330;-33.858;151.184;2023-03-01T08:01:38;9.43;;;1.92;;
16440;SDS011;8330;-33.858;151.184;2023-03-01T08:04:09;10.35;;;2.40;;
16440;SDS011;8330;-33.858;151.184;2023-03-01T08:06:42;10.30;;;2.70;;
16440;SDS011;8330;-33.858;151.184;2023-03-01T08:09:13;6.50;;;2.00;;
16440;SDS011;8330;-33.858;151.184;2023-03-01T08:11:44;10.93;;;2.65;;
16440;SDS011;8330;-33.858;151.184;2023-03-01T08:14:19;12.50;;;2.83;;
16440;SDS011;8330;-33.858;151.184;2023-03-01T08:16:50;9.63;;;2.28;;
16440;SDS011;8330;-33.858;151.184;2023-03-01T08:19:21;9.30;;;2.38;;
16440;SDS011;8330;-33.858;151.184;2023-03-01T08:21:56;9.68;;;2.45;;
16440;SDS011;8330;-33.858;151.184;2023-03-01T08:24:27;8.90;;;2.90;;
16440;SDS011;8330;-33.858;151.184;2023-03-01T08:26:58;11.90;;;2.63;;
16440;SDS011;8330;-33.858;151.184;2023-03-01T08:29:30;9.00;;;2.60;;
16440;SDS011;8330;-33.858;151.184;2023-03-01T08:32:02;7.38;;;1.92;;
16440;SDS011;8330;-33.858;151.184;2023-03-01T08:34:33;11.82;;;3.10;;
16440;SDS011;8330;-33.858;151.184;2023-03-01T08:37:07;10.40;;;2.45;;
16440;SDS011;8330;-33.858;151.184;2023-03-01T08:39:38;10.45;;;4.00;;
16440;SDS011;8330;-33.858;151.184;2023-03-01T08:42:09;7.18;;;2.17;;
16440;SDS011;8330;-33.858;151.184;2023-03-01T08:44:40;11.27;;;2.72;;
16440;SDS011;8330;-33.858;151.184;2023-03-01T08:47:11;8.15;;;2.22;;
16440;SDS011;8330;-33.858;151.184;2023-03-01T08:49:42;11.18;;;2.58;;
16440;SDS011;8330;-33.858;151.184;2023-03-01T08:52:15;8.68;;;2.40;;
16440;SDS011;8330;-33.858;151.184;2023-03-01T08:54:47;10.05;;;2.53;;
16440;SDS011;8330;-33.858;151.184;2023-03-01T08:57:19;9.50;;;2.70;;
16440;SDS011;8330;-33.858;151.184;2023-03-01T08:59:50;13.00;;;2.95;;
16440;SDS011;8330;-33.858;151.184;2023-03-01T09:02:22;8.32;;;2.47;;
16440;SDS011;8330;-33.858;151.184;2023-03-01T09:04:53;12.15;;;2.40;;
16440;SDS011;8330;-33.858;151.184;2023-03-01T09:07:26;8.98;;;2.53;;
16440;SDS011;8330;-33.858;151.184;2023-03-01T09:09:57;7.70;;;2.28;;
16440;SDS011;8330;-33.858;151.184;2023-03-01T09:12:28;9.40;;;2.65;;
16440;SDS011;8330;-33.858;151.184;2023-03-01T09:15:03;13.48;;;2.45;;
16440;SDS011;8330;-33.858;151.184;2023-03-01T09:17:35;8.20;;;2.30;;
16440;SDS011;8330;-33.858;151.184;2023-03-01T09:20:06;8.07;;;2.38;;
16440;SDS011;8330;-33.858;151.184;2023-03-01T09:22:40;10.75;;;2.38;;
16440;SDS011;8330;-33.858;151.184;2023-03-01T09:25:12;13.93;;;2.65;;
16440;SDS011;8330;-33.858;151.184;2023-03-01T09:27:43;9.82;;;2.30;;
16440;SDS011;8330;-33.858;151.184;2023-03-01T09:30:15;9.20;;;2.95;;
16440;SDS011;8330;-33.858;151.184;2023-03-01T09:32:52;11.38;;;2.20;;
16440;SDS011;8330;-33.858;151.184;2023-03-01T09:35:27;9.35;;;2.33;;
16440;SDS011;8330;-33.858;151.184;2023-03-01T09:38:03;9.80;;;2.60;;
16440;SDS011;8330;-33.858;151.184;2023-03-01T09:40:34;11.23;;;3.10;;
16440;SDS011;8330;-33.858;151.184;2023-03-01T09:43:12;12.48;;;2.25;;
16440;SDS011;8330;-33.858;151.184;2023-03-01T09:45:50;13.73;;;2.83;;
16440;SDS011;8330;-33.858;151.184;2023-03-01T09:48:26;6.65;;;2.30;;
16440;SDS011;8330;-33.858;151.184;2023-03-01T09:50:58;11.85;;;2.67;;
16440;SDS011;8330;-33.858;151.184;2023-03-01T09:53:37;8.60;;;2.15;;
16440;SDS011;8330;-33.858;151.184;2023-03-01T09:56:11;9.98;;;2.90;;
16440;SDS011;8330;-33.858;151.184;2023-03-01T09:58:48;7.70;;;2.22;;
16440;SDS011;8330;-33.858;151.184;2023-03-01T10:01:28;11.50;;;2.75;;
16440;SDS011;8330;-33.858;151.184;2023-03-01T10:04:20;10.45;;;2.50;;
16440;SDS011;8330;-33.858;151.184;2023-03-01T10:07:11;10.52;;;2.60;;
16440;SDS011;8330;-33.858;151.184;2023-03-01T10:09:57;9.82;;;2.45;;
16440;SDS011;8330;-33.858;151.184;2023-03-01T10:12:32;12.80;;;2.50;;
16440;SDS011;8330;-33.858;151.184;2023-03-01T10:15:14;10.75;;;2.50;;
16440;SDS011;8330;-33.858;151.184;2023-03-01T10:17:48;11.52;;;2.47;;
16440;SDS011;8330;-33.858;151.184;2023-03-01T10:20:22;8.20;;;2.00;;
16440;SDS011;8330;-33.858;151.184;2023-03-01T10:22:54;9.57;;;2.20;;
16440;SDS011;8330;-33.858;151.184;2023-03-01T10:25:41;7.53;;;2.05;;
16440;SDS011;8330;-33.858;151.184;2023-03-01T10:28:24;8.27;;;2.28;;
16440;SDS011;8330;-33.858;151.184;2023-03-01T10:31:00;7.28;;;2.13;;
16440;SDS011;8330;-33.858;151.184;2023-03-01T10:33:32;5.30;;;1.90;;
16440;SDS011;8330;-33.858;151.184;2023-03-01T10:36:08;11.57;;;2.42;;
16440;SDS011;8330;-33.858;151.184;2023-03-01T10:38:48;5.57;;;1.70;;
16440;SDS011;8330;-33.858;151.184;2023-03-01T10:41:23;7.65;;;2.25;;
16440;SDS011;8330;-33.858;151.184;2023-03-01T10:43:56;8.05;;;2.00;;
16440;SDS011;8330;-33.858;151.184;2023-03-01T10:46:28;9.32;;;2.20;;
16440;SDS011;8330;-33.858;151.184;2023-03-01T10:49:10;8.27;;;2.05;;
16440;SDS011;8330;-33.858;151.184;2023-03-01T10:51:44;7.57;;;2.20;;
16440;SDS011;8330;-33.858;151.184;2023-03-01T10:54:17;9.63;;;2.28;;
16440;SDS011;8330;-33.858;151.184;2023-03-01T10:56:53;10.63;;;2.67;;
16440;SDS011;8330;-33.858;151.184;2023-03-01T10:59:28;11.68;;;2.65;;
16440;SDS011;8330;-33.858;151.184;2023-03-01T11:02:12;9.77;;;2.63;;
16440;SDS011;8330;-33.858;151.184;2023-03-01T11:04:59;7.10;;;2.20;;
16440;SDS011;8330;-33.858;151.184;2023-03-01T11:07:46;9.18;;;2.22;;
16440;SDS011;8330;-33.858;151.184;2023-03-01T11:10:19;11.02;;;2.75;;
16440;SDS011;8330;-33.858;151.184;2023-03-01T11:13:05;9.75;;;2.33;;
16440;SDS011;8330;-33.858;151.184;2023-03-01T11:15:38;7.20;;;2.30;;
16440;SDS011;8330;-33.858;151.184;2023-03-01T11:18:20;9.10;;;2.50;;
16440;SDS011;8330;-33.858;151.184;2023-03-01T11:20:52;10.30;;;2.33;;
16440;SDS011;8330;-33.858;151.184;2023-03-01T11:23:26;8.70;;;1.90;;
16440;SDS011;8330;-33.858;151.184;2023-03-01T11:26:00;7.68;;;2.00;;
16440;SDS011;8330;-33.858;151.184;2023-03-01T11:28:37;7.75;;;2.00;;
16440;SDS011;8330;-33.858;151.184;2023-03-01T11:31:09;6.93;;;2.05;;
16440;SDS011;8330;-33.858;151.184;2023-03-01T11:33:43;8.40;;;2.47;;
16440;SDS011;8330;-33.858;151.184;2023-03-01T11:36:19;10.05;;;2.20;;
16440;SDS011;8330;-33.858;151.184;2023-03-01T11:38:57;9.40;;;2.40;;
16440;SDS011;8330;-33.858;151.184;2023-03-01T11:41:34;11.23;;;2.67;;
16440;SDS011;8330;-33.858;151.184;2023-03-01T11:44:13;8.20;;;2.13;;
16440;SDS011;8330;-33.858;151.184;2023-03-01T11:46:53;9.93;;;2.47;;
16440;SDS011;8330;-33.858;151.184;2023-03-01T11:52:38;10.55;;;2.65;;
16440;SDS011;8330;-33.858;151.184;2023-03-01T11:55:24;10.23;;;2.42;;
16440;SDS011;8330;-33.858;151.184;2023-03-01T11:58:08;8.45;;;2.10;;
16440;SDS011;8330;-33.858;151.184;2023-03-01T12:03:59;7.53;;;1.88;;
16440;SDS011;8330;-33.858;151.184;2023-03-01T12:06:53;8.20;;;2.13;;
16440;SDS011;8330;-33.858;151.184;2023-03-01T12:09:43;8.05;;;2.25;;
16440;SDS011;8330;-33.858;151.184;2023-03-01T12:12:30;5.45;;;1.77;;
16440;SDS011;8330;-33.858;151.184;2023-03-01T12:20:58;6.80;;;1.90;;
16440;SDS011;8330;-33.858;151.184;2023-03-01T12:23:52;6.80;;;2.42;;
16440;SDS011;8330;-33.858;151.184;2023-03-01T12:26:40;6.40;;;2.08;;
16440;SDS011;8330;-33.858;151.184;2023-03-01T12:29:22;8.98;;;2.15;;
16440;SDS011;8330;-33.858;151.184;2023-03-01T12:32:10;5.75;;;1.80;;
16440;SDS011;8330;-33.858;151.184;2023-03-01T12:34:59;5.47;;;2.08;;
16440;SDS011;8330;-33.858;151.184;2023-03-01T12:37:42;5.20;;;1.73;;
16440;SDS011;8330;-33.858;151.184;2023-03-01T12:40:26;6.43;;;1.85;;
16440;SDS011;8330;-33.858;151.184;2023-03-01T12:43:15;10.23;;;2.33;;
16440;SDS011;8330;-33.858;151.184;2023-03-01T12:46:02;6.82;;;2.00;;
16440;SDS011;8330;-33.858;151.184;2023-03-01T12:48:50;5.90;;;1.98;;
16440;SDS011;8330;-33.858;151.184;2023-03-01T12:51:32;6.60;;;2.10;;
16440;SDS011;8330;-33.858;151.184;2023-03-01T12:54:07;7.75;;;2.08;;
16440;SDS011;8330;-33.858;151.184;2023-03-01T12:56:44;5.82;;;2.10;;
16440;SDS011;8330;-33.858;151.184;2023-03-01T12:59:19;6.90;;;1.98;;
16440;SDS011;8330;-33.858;151.184;2023-03-01T13:01:57;5.45;;;1.90;;
16440;SDS011;8330;-33.858;151.184;2023-03-01T13:04:44;7.18;;;2.15;;
16440;SDS011;8330;-33.858;151.184;2023-03-01T13:07:33;6.25;;;1.88;;
16440;SDS011;8330;-33.858;151.184;2023-03-01T13:10:20;5.63;;;1.80;;
16440;SDS011;8330;-33.858;151.184;2023-03-01T13:13:02;6.78;;;2.35;;
16440;SDS011;8330;-33.858;151.184;2023-03-01T13:15:42;6.95;;;1.83;;
16440;SDS011;8330;-33.858;151.184;2023-03-01T13:18:32;7.43;;;2.03;;
16440;SDS011;8330;-33.858;151.184;2023-03-01T13:21:07;5.57;;;2.13;;
16440;SDS011;8330;-33.858;151.184;2023-03-01T13:23:40;7.20;;;1.98;;
16440;SDS011;8330;-33.858;151.184;2023-03-01T13:26:16;6.00;;;1.90;;
16440;SDS011;8330;-33.858;151.184;2023-03-01T13:28:54;8.20;;;2.25;;
16440;SDS011;8330;-33.858;151.184;2023-03-01T13:34:47;9.75;;;2.22;;
16440;SDS011;8330;-33.858;151.184;2023-03-01T13:37:24;8.27;;;1.90;;
16440;SDS011;8330;-33.858;151.184;2023-03-01T13:40:00;6.65;;;1.92;;
16440;SDS011;8330;-33.858;151.184;2023-03-01T13:42:38;4.72;;;1.95;;
16440;SDS011;8330;-33.858;151.184;2023-03-01T13:45:20;9.63;;;2.17;;
16440;SDS011;8330;-33.858;151.184;2023-03-01T13:47:55;6.20;;;1.80;;
16440;SDS011;8330;-33.858;151.184;2023-03-01T13:50:28;9.27;;;2.42;;
16440;SDS011;8330;-33.858;151.184;2023-03-01T13:53:03;8.35;;;2.22;;
16440;SDS011;8330;-33.858;151.184;2023-03-01T13:55:41;4.60;;;1.70;;
16440;SDS011;8330;-33.858;151.184;2023-03-01T13:58:15;6.25;;;2.05;;
16440;SDS011;8330;-33.858;151.184;2023-03-01T14:00:55;6.25;;;2.00;;
16440;SDS011;8330;-33.858;151.184;2023-03-01T14:03:32;5.22;;;2.08;;
16440;SDS011;8330;-33.858;151.184;2023-03-01T14:06:12;7.70;;;2.05;;
16440;SDS011;8330;-33.858;151.184;2023-03-01T14:08:44;6.40;;;1.92;;
16440;SDS011;8330;-33.858;151.184;2023-03-01T14:11:23;4.85;;;1.70;;
16440;SDS011;8330;-33.858;151.184;2023-03-01T14:17:30;4.63;;;1.80;;
16440;SDS011;8330;-33.858;151.184;2023-03-01T14:20:26;8.05;;;2.30;;
16440;SDS011;8330;-33.858;151.184;2023-03-01T14:22:59;8.00;;;1.98;;
16440;SDS011;8330;-33.858;151.184;2023-03-01T14:25:36;6.88;;;2.08;;
16440;SDS011;8330;-33.858;151.184;2023-03-01T14:28:17;7.70;;;2.13;;
16440;SDS011;8330;-33.858;151.184;2023-03-01T14:30:52;6.50;;;2.15;;
16440;SDS011;8330;-33.858;151.184;2023-03-01T14:33:28;4.80;;;1.70;;
16440;SDS011;8330;-33.858;151.184;2023-03-01T14:36:04;6.00;;;2.00;;
16440;SDS011;8330;-33.858;151.184;2023-03-01T14:38:36;7.28;;;2.28;;
16440;SDS011;8330;-33.858;151.184;2023-03-01T14:41:08;8.93;;;2.20;;
16440;SDS011;8330;-33.858;151.184;2023-03-01T14:43:49;8.63;;;2.38;;
16440;SDS011;8330;-33.858;151.184;2023-03-01T14:46:24;6.22;;;2.10;;
16440;SDS011;8330;-33.858;151.184;2023-03-01T14:49:01;6.53;;;2.13;;
16440;SDS011;8330;-33.858;151.184;2023-03-01T14:51:37;6.53;;;2.08;;
16440;SDS011;8330;-33.858;151.184;2023-03-01T14:54:18;11.68;;;2.60;;
16440;SDS011;8330;-33.858;151.184;2023-03-01T14:56:53;7.28;;;2.08;;
16440;SDS011;8330;-33.858;151.184;2023-03-01T14:59:29;9.02;;;2.33;;
16440;SDS011;8330;-33.858;151.184;2023-03-01T15:02:01;10.18;;;2.55;;
16440;SDS011;8330;-33.858;151.184;2023-03-01T15:04:33;8.02;;;2.67;;
16440;SDS011;8330;-33.858;151.184;2023-03-01T15:07:05;8.70;;;2.40;;
16440;SDS011;8330;-33.858;151.184;2023-03-01T15:09:40;10.88;;;2.65;;
16440;SDS011;8330;-33.858;151.184;2023-03-01T15:15:22;11.27;;;2.50;;
16440;SDS011;8330;-33.858;151.184;2023-03-01T15:18:04;7.80;;;2.38;;
16440;SDS011;8330;-33.858;151.184;2023-03-01T15:20:46;8.32;;;2.53;;
16440;SDS011;8330;-33.858;151.184;2023-03-01T15:23:20;8.88;;;2.70;;
16440;SDS011;8330;-33.858;151.184;2023-03-01T15:25:53;10.18;;;2.95;;